Airfield :
LOGIN :

Register | Disclaimer

   EN    FR    IT 

 










Legend :    VFR   Marginal VFR   IFR   Intensive IFR   Very Intensive IFR
Visi :
Ceiling :
>= 8 km
>= 3000ft
5 to 8 km
1000 to 3000 ft
1500m to 5 km
500 to 1000 ft
800 to 1500m
200 to 500 ft
< 800m
< 200 ft
Symbols :   Thunderstorms  Fog  Heavy snow  Heavy precipitations  Wind > 20 kt
SIGMETs :     Misc.  Thunderstorms  Icing  Turbulence  Mountain Waves  Volcanic Ashes







- Airport Elevation : 20 ft
- IATA code : OBN
- Download approach charts


EGEO - Oban

CURRENT METAR :
  • 191420Z 25023G38KT 8000 -SHRA FEW016 SCT022 BKN028 11/08 Q0990

EXPIRED METARs :
  • 191350Z 27022G32KT 8000 -SHRA FEW018 BKN029 12/08 Q0989
  • 191320Z 29034G44KT 9999 VCSH FEW018 BKN029 11/07 Q0986
  • 191250Z 22029G40KT 6000 SHRA FEW014 SCT024 BKN036 13/10 Q0983
  • 191220Z 20021G31KT 170V230 5000 VCSH FEW014 SCT026 BKN038 12/10 Q0981
  • 191150Z 21024G37KT 4200 -RA FEW017 BKN030 OVC042 12/10 Q0982

TAF TAF EGEO
Valid from the 19 at 15:00 until the 19 at 17:00 UTC


191402Z 1915/1917 28035G45KT 9999 FEW010 BKN025
TEMPO 1915/1917 4000 RA
No reported NOTAMs for that airfield.
2 SIGMETs reported for the Scottish FIR (EGPX) :
 
Severe mountain waves
EGPX SIGMET 10 VALID 191300/191700 EGRR
EGPX SCOTTISH FIR SEV MTW FCST WI N5646 W00124 - N5500 E00108 - N5500 W00530 - N5355 W00530 - N5514 W00847 - N6100 W00250 - N6100 E00000 - N6000 E00000 - N5959 E00002 - N5646 W00124 FL030/250 STNR NC=
Severe turbulence
EGPX SIGMET 09 VALID 191300/191700 EGRR
EGPX SCOTTISH FIR SEV TURB FCST SE OF LINE N5633 W01000 - N6049 E00000 SFC/FL060 STNR NC=



MET'MAP, your aeronautical weather chart ! - Copyright ORBIFLY December 2007 - Disclaimer

ORBIFLY MET'MAP TEAM :

Programming & Development : Alexandra Zaïnal
Concept & Development : Baudouin d'Aumeries
Co-Development & Prog : Marc-Olivier Méhu
Technical & hardware support : Manuel Goepfert

Contact : metmap@orbifly.com




SOURCES & CREDITS :

   NOAA